createdAt,value
2022-10-01T05:03:51.399Z,15.32
2022-10-01T05:07:53.640Z,15.34
2022-10-01T05:11:55.812Z,15.33
2022-10-01T05:16:02.354Z,15.22
2022-10-01T05:20:06.700Z,15.18
2022-10-01T05:24:08.809Z,15.11
2022-10-01T05:28:10.856Z,15.11
2022-10-01T05:32:13.354Z,15.12
2022-10-01T05:36:16.155Z,15.15
2022-10-01T05:40:18.612Z,15.06
2022-10-01T05:44:20.689Z,15.17
2022-10-01T05:48:22.777Z,15.27
2022-10-01T05:52:24.865Z,15.35
2022-10-01T05:56:26.933Z,15.42
2022-10-01T06:00:31.518Z,15.50
2022-10-01T06:04:37.750Z,15.51
2022-10-01T06:08:45.498Z,15.50
2022-10-01T06:12:48.591Z,15.46
2022-10-01T06:19:56.183Z,15.62
2022-10-01T06:23:58.239Z,15.70
2022-10-01T06:28:00.954Z,15.49
2022-10-01T06:32:03.228Z,15.38
2022-10-01T06:36:05.609Z,15.30
2022-10-01T06:40:08.075Z,15.27
2022-10-01T06:44:10.534Z,15.21
2022-10-01T06:48:14.952Z,15.14
2022-10-01T06:52:35.642Z,15.36
2022-10-01T06:56:37.854Z,15.44
2022-10-01T07:00:40.301Z,15.52
2022-10-01T07:04:42.371Z,15.83
2022-10-01T07:08:44.530Z,15.87
2022-10-01T07:12:50.404Z,16.16
2022-10-01T07:16:53.028Z,16.41
2022-10-01T07:20:57.572Z,16.78
2022-10-01T07:24:59.669Z,17.04
2022-10-01T07:29:01.941Z,17.00
2022-10-01T07:33:04.070Z,17.22
2022-10-01T07:37:06.943Z,17.66
2022-10-01T07:41:09.745Z,17.93
2022-10-01T07:45:12.165Z,18.08
2022-10-01T07:49:17.331Z,18.19
2022-10-01T07:57:50.329Z,17.56
2022-10-01T08:01:53.239Z,17.93
2022-10-01T08:05:55.743Z,17.95
2022-10-01T08:09:58.034Z,17.82
2022-10-01T08:14:00.366Z,17.62
2022-10-01T08:18:04.262Z,17.80
2022-10-01T08:22:07.305Z,17.56
2022-10-01T08:26:11.671Z,17.54
2022-10-01T08:30:14.012Z,17.99
2022-10-01T08:34:16.244Z,18.31
2022-10-01T08:38:19.810Z,18.32
2022-10-01T08:42:37.538Z,18.30
2022-10-01T08:46:39.996Z,18.07
2022-10-01T08:50:53.887Z,17.88
2022-10-01T08:55:00.743Z,18.25
2022-10-01T08:59:13.292Z,18.74
2022-10-01T09:03:16.945Z,19.22
2022-10-01T09:07:28.956Z,19.34
2022-10-01T09:11:59.212Z,18.82
2022-10-01T09:16:38.873Z,18.41
2022-10-01T09:20:47.904Z,18.45
2022-10-01T09:25:14.092Z,18.46
2022-10-01T09:29:24.295Z,18.31
2022-10-01T09:33:39.969Z,17.82
2022-10-01T09:37:49.178Z,18.00
2022-10-01T09:41:52.224Z,18.04
2022-10-01T09:45:55.213Z,18.36
2022-10-01T09:50:03.494Z,18.19
2022-10-01T09:54:11.505Z,17.94
2022-10-01T10:00:24.838Z,17.90
2022-10-01T10:04:35.898Z,18.28
2022-10-01T10:08:40.344Z,18.19
2022-10-01T10:12:44.246Z,18.41
2022-10-01T10:16:48.731Z,18.52
2022-10-01T10:20:55.111Z,18.71
2022-10-01T10:25:05.531Z,18.49
2022-10-01T10:29:25.034Z,18.68
2022-10-01T10:33:27.448Z,18.61
2022-10-01T10:37:34.619Z,18.65
2022-10-01T10:41:37.507Z,18.97
2022-10-01T10:45:45.414Z,18.51
2022-10-01T10:49:48.781Z,18.40
2022-10-01T10:53:51.031Z,18.26
2022-10-01T10:57:57.327Z,18.35
2022-10-01T11:02:02.523Z,18.54
2022-10-01T11:06:31.565Z,18.66
2022-10-01T11:10:53.379Z,18.76
2022-10-01T11:15:24.853Z,18.76
2022-10-01T11:19:48.733Z,18.95
2022-10-01T11:23:51.230Z,19.12
2022-10-01T11:28:31.950Z,19.24
2022-10-01T11:32:41.807Z,19.43
2022-10-01T11:36:50.957Z,19.53
2022-10-01T11:41:23.927Z,19.40
2022-10-01T11:45:32.699Z,19.36
2022-10-01T11:49:47.971Z,19.56
2022-10-01T11:53:58.428Z,19.60
2022-10-01T11:58:30.276Z,19.84
2022-10-01T12:02:47.665Z,19.89
2022-10-01T12:06:55.829Z,19.53
2022-10-01T12:11:11.866Z,19.63
2022-10-01T12:15:23.546Z,19.56
2022-10-01T12:19:36.615Z,19.73
2022-10-01T12:23:51.146Z,19.91
2022-10-01T12:28:12.681Z,19.83
2022-10-01T12:32:30.642Z,19.54
2022-10-01T12:36:44.478Z,19.57
2022-10-01T12:40:55.017Z,19.45
2022-10-01T12:45:02.947Z,19.49
2022-10-01T12:49:22.418Z,19.58
2022-10-01T12:53:51.320Z,19.77
2022-10-01T12:57:57.284Z,19.93
2022-10-01T13:02:30.425Z,19.95
2022-10-01T13:06:54.285Z,20.02
2022-10-01T13:11:25.189Z,20.01
2022-10-01T13:15:35.135Z,20.17
2022-10-01T13:19:37.307Z,20.58
2022-10-01T13:23:50.328Z,20.63
2022-10-01T13:28:21.327Z,20.33
2022-10-01T13:32:35.799Z,20.24
2022-10-01T13:36:38.344Z,20.59
2022-10-01T13:40:41.301Z,20.77
2022-10-01T13:44:43.442Z,20.47
2022-10-01T13:48:49.132Z,20.61
2022-10-01T13:52:53.250Z,20.83
2022-10-01T13:56:55.648Z,20.63
2022-10-01T14:01:00.982Z,20.57
2022-10-01T14:05:23.386Z,20.43
2022-10-01T14:09:32.650Z,20.54
2022-10-01T14:14:02.210Z,20.69
2022-10-01T14:18:10.309Z,20.89
2022-10-01T14:22:26.915Z,20.89
2022-10-01T14:26:43.071Z,20.82
2022-10-01T14:31:17.105Z,20.50
2022-10-01T14:35:20.738Z,20.45
2022-10-01T14:39:26.260Z,20.41
2022-10-01T14:43:31.575Z,20.23
2022-10-01T14:47:36.019Z,20.15
2022-10-01T14:51:49.258Z,20.22
2022-10-01T14:55:54.985Z,20.30
2022-10-01T15:00:01.134Z,20.24
2022-10-01T15:04:14.777Z,20.07
2022-10-01T15:08:39.556Z,20.14
2022-10-01T15:12:41.938Z,20.02
2022-10-01T15:16:44.648Z,19.99
2022-10-01T15:21:00.390Z,19.68
2022-10-01T15:25:02.668Z,19.73
2022-10-01T15:29:12.212Z,19.68
2022-10-01T15:33:41.360Z,19.34
2022-10-01T15:37:49.966Z,19.26
2022-10-01T15:41:54.857Z,19.41
2022-10-01T15:46:11.182Z,19.40
2022-10-01T15:50:13.408Z,19.56
2022-10-01T15:54:15.658Z,19.85
2022-10-01T15:58:35.224Z,19.83
2022-10-01T16:02:37.524Z,20.27
2022-10-01T16:06:49.246Z,20.76
2022-10-01T16:11:13.038Z,20.61
2022-10-01T16:15:28.032Z,20.54
2022-10-01T16:19:31.406Z,20.64
2022-10-01T16:23:34.876Z,20.38
2022-10-01T16:27:48.548Z,20.23
2022-10-01T16:31:51.311Z,19.75
2022-10-01T16:36:08.195Z,19.04
2022-10-01T16:40:15.785Z,18.74
2022-10-01T16:44:19.999Z,18.40
2022-10-01T16:48:25.128Z,18.11
2022-10-01T16:52:27.175Z,17.88
2022-10-01T16:56:29.815Z,17.54
2022-10-01T17:00:32.971Z,17.36
2022-10-01T17:04:35.432Z,17.17
2022-10-01T17:08:37.583Z,16.80
2022-10-01T17:12:41.692Z,16.57
2022-10-01T17:16:44.014Z,16.54
2022-10-01T17:20:46.813Z,16.53
2022-10-01T17:24:49.286Z,16.47
2022-10-01T17:28:51.484Z,16.40
2022-10-01T17:32:53.545Z,16.29
2022-10-01T17:36:55.847Z,16.23
2022-10-01T17:41:00.452Z,16.11
2022-10-01T17:45:06.573Z,15.98
2022-10-01T17:49:08.875Z,15.88
2022-10-01T17:53:12.364Z,15.78
2022-10-01T17:57:14.446Z,15.65
2022-10-01T18:01:20.408Z,15.54
2022-10-01T18:05:22.677Z,15.51
2022-10-01T18:09:25.344Z,15.44
2022-10-01T18:13:27.573Z,15.33
2022-10-01T18:17:32.637Z,15.27
2022-10-01T18:21:34.973Z,15.22
2022-10-01T18:25:37.545Z,15.15
2022-10-01T18:29:39.759Z,15.06
2022-10-01T18:33:55.596Z,15.03
2022-10-01T18:38:12.705Z,14.93
2022-10-01T18:42:21.226Z,14.76
2022-10-01T18:46:23.405Z,14.91
2022-10-01T18:51:11.991Z,14.97
2022-10-01T18:55:42.917Z,15.02
2022-10-01T19:00:08.871Z,15.17
2022-10-01T19:04:35.185Z,15.12
2022-10-01T19:09:01.677Z,15.19
2022-10-01T19:13:41.260Z,15.19
2022-10-01T19:18:18.420Z,15.24
2022-10-01T19:22:46.892Z,15.33
2022-10-01T19:27:19.600Z,15.37
2022-10-01T19:31:35.638Z,15.43
2022-10-01T19:35:46.710Z,15.49
2022-10-01T19:39:51.753Z,15.56
2022-10-01T19:44:04.734Z,15.65
2022-10-01T19:48:23.808Z,15.71
2022-10-01T19:52:30.370Z,15.76
2022-10-01T19:56:34.931Z,15.78
2022-10-01T20:00:38.036Z,15.83
2022-10-01T20:04:53.507Z,15.87
2022-10-01T20:09:03.657Z,15.90
2022-10-01T20:13:21.367Z,15.98
2022-10-01T20:17:41.829Z,15.88
2022-10-01T20:22:10.834Z,15.97
2022-10-01T20:26:25.956Z,15.96
2022-10-01T20:30:33.918Z,15.98
2022-10-01T20:34:57.402Z,16.04
2022-10-01T20:39:13.687Z,16.01
2022-10-01T20:43:22.264Z,16.01
2022-10-01T20:47:40.425Z,16.02
2022-10-01T20:51:53.476Z,16.01
2022-10-01T20:56:02.092Z,16.07
2022-10-01T21:00:23.360Z,16.07
2022-10-01T21:04:32.354Z,16.13
2022-10-01T21:08:52.726Z,16.13
2022-10-01T21:13:07.699Z,16.07
2022-10-01T21:17:25.096Z,16.03
2022-10-01T21:21:55.163Z,15.98
2022-10-01T21:26:26.773Z,15.91
2022-10-01T21:30:57.049Z,15.99
2022-10-01T21:35:24.131Z,16.04
2022-10-01T21:39:45.648Z,16.03
2022-10-01T21:44:11.378Z,15.99
2022-10-01T21:48:27.599Z,15.93
2022-10-01T21:52:49.773Z,15.86
2022-10-01T21:57:14.793Z,15.84
2022-10-01T22:01:39.123Z,15.86
2022-10-01T22:05:57.291Z,15.86
2022-10-01T22:10:10.434Z,15.78
2022-10-01T22:14:19.580Z,15.73
2022-10-01T22:18:35.981Z,15.80
2022-10-01T22:22:39.378Z,15.81
2022-10-01T22:26:49.739Z,15.71
2022-10-01T22:30:56.313Z,15.74
2022-10-01T22:35:03.835Z,15.78
2022-10-01T22:39:23.095Z,15.78
2022-10-01T22:43:25.331Z,15.69
2022-10-01T22:47:39.496Z,15.60
2022-10-01T22:51:50.036Z,15.74
2022-10-01T22:55:57.163Z,15.81
2022-10-01T23:00:07.551Z,15.87
2022-10-01T23:04:43.726Z,15.99
2022-10-01T23:08:55.020Z,16.00
2022-10-01T23:13:35.854Z,15.98
2022-10-01T23:17:54.229Z,15.99
2022-10-01T23:22:11.270Z,15.97
2022-10-01T23:26:35.235Z,15.92
2022-10-01T23:31:00.270Z,15.83
2022-10-01T23:35:20.952Z,15.81
2022-10-01T23:39:41.330Z,15.83
2022-10-01T23:43:50.996Z,15.71
2022-10-01T23:48:05.927Z,15.67
2022-10-01T23:52:21.455Z,15.73
2022-10-01T23:56:49.028Z,15.72
